createdAt,value
2022-08-07T00:00:14.205Z,11.23
2022-08-07T00:02:40.321Z,11.25
2022-08-07T00:05:08.012Z,11.21
2022-08-07T00:07:40.589Z,11.21
2022-08-07T00:10:25.499Z,11.19
2022-08-07T00:12:57.692Z,11.14
2022-08-07T00:15:25.837Z,11.09
2022-08-07T00:18:04.705Z,11.05
2022-08-07T00:20:34.281Z,10.98
2022-08-07T00:23:00.695Z,10.98
2022-08-07T00:25:26.834Z,10.96
2022-08-07T00:28:03.590Z,10.94
2022-08-07T00:30:31.086Z,10.87
2022-08-07T00:32:58.201Z,10.85
2022-08-07T00:35:25.901Z,10.78
2022-08-07T00:37:52.826Z,10.75
2022-08-07T00:40:36.194Z,10.75
2022-08-07T00:43:10.016Z,10.79
2022-08-07T00:45:36.884Z,10.75
2022-08-07T00:48:08.373Z,10.75
2022-08-07T00:50:46.525Z,10.67
2022-08-07T00:53:17.571Z,10.65
2022-08-07T00:56:03.023Z,10.62
2022-08-07T00:58:29.785Z,10.60
2022-08-07T01:00:56.017Z,10.56
2022-08-07T01:03:54.611Z,10.55
2022-08-07T01:06:08.847Z,10.50
2022-08-07T01:08:35.070Z,10.51
2022-08-07T01:12:04.563Z,10.49
2022-08-07T01:13:55.753Z,10.46
2022-08-07T01:16:30.532Z,10.46
2022-08-07T01:18:58.471Z,10.42
2022-08-07T01:21:26.249Z,10.39
2022-08-07T01:23:57.259Z,10.39
2022-08-07T01:26:26.210Z,10.37
2022-08-07T01:28:53.986Z,10.36
2022-08-07T01:31:41.815Z,10.33
2022-08-07T01:34:14.387Z,10.32
2022-08-07T01:36:42.198Z,10.30
2022-08-07T01:39:16.295Z,10.26
2022-08-07T01:42:07.350Z,10.25
2022-08-07T01:44:37.177Z,10.24
2022-08-07T01:48:18.071Z,10.23
2022-08-07T01:49:53.584Z,10.19
2022-08-07T01:52:26.625Z,10.17
2022-08-07T01:54:56.173Z,10.17
2022-08-07T01:57:29.403Z,10.15
2022-08-07T02:00:12.821Z,10.13
2022-08-07T02:03:21.046Z,10.10
2022-08-07T02:05:59.922Z,10.12
2022-08-07T02:08:33.686Z,10.15
2022-08-07T02:11:03.776Z,10.12
2022-08-07T02:13:58.311Z,10.07
2022-08-07T02:16:28.621Z,10.01
2022-08-07T02:19:02.162Z,9.95
2022-08-07T02:21:56.620Z,9.96
2022-08-07T02:24:19.864Z,9.95
2022-08-07T02:26:47.167Z,9.87
2022-08-07T02:29:13.963Z,9.83
2022-08-07T02:31:41.970Z,9.83
2022-08-07T02:34:11.228Z,9.79
2022-08-07T02:36:49.581Z,9.77
2022-08-07T02:39:43.017Z,9.81
2022-08-07T02:42:10.128Z,9.82
2022-08-07T02:44:47.789Z,9.75
2022-08-07T02:47:19.767Z,9.70
2022-08-07T02:49:58.985Z,9.68
2022-08-07T02:52:34.579Z,9.65
2022-08-07T02:55:15.432Z,9.72
2022-08-07T02:57:55.446Z,9.71
2022-08-07T03:00:24.217Z,9.66
2022-08-07T03:02:54.588Z,9.66
2022-08-07T03:05:23.226Z,9.67
2022-08-07T03:08:07.102Z,9.66
2022-08-07T03:10:40.908Z,9.65
2022-08-07T03:13:15.653Z,9.68
2022-08-07T03:15:47.798Z,9.68
2022-08-07T03:18:25.883Z,9.68
2022-08-07T03:21:02.809Z,9.72
2022-08-07T03:23:33.991Z,9.66
2022-08-07T03:26:21.188Z,9.63
2022-08-07T03:28:50.158Z,9.64
2022-08-07T03:31:19.307Z,9.65
2022-08-07T03:34:02.426Z,9.65
2022-08-07T03:36:34.297Z,9.65
2022-08-07T03:39:09.599Z,9.65
2022-08-07T03:41:42.560Z,9.66
2022-08-07T03:44:15.363Z,9.66
2022-08-07T03:47:11.509Z,9.67
2022-08-07T03:49:30.442Z,9.67
2022-08-07T03:52:01.983Z,9.68
2022-08-07T03:54:36.187Z,9.71
2022-08-07T03:58:32.442Z,9.72
2022-08-07T04:00:04.627Z,9.75
2022-08-07T04:02:47.501Z,9.76
2022-08-07T04:05:39.572Z,9.76
2022-08-07T04:08:12.758Z,9.75
2022-08-07T04:10:43.546Z,9.79
2022-08-07T04:13:27.676Z,9.81
2022-08-07T04:15:54.707Z,9.85
2022-08-07T04:18:59.027Z,9.89
2022-08-07T04:21:07.677Z,9.96
2022-08-07T04:23:43.920Z,10.03
2022-08-07T04:26:21.972Z,10.12
2022-08-07T04:28:48.847Z,10.18
2022-08-07T04:31:19.785Z,10.27
2022-08-07T04:33:47.400Z,10.37
2022-08-07T04:36:22.715Z,10.46
2022-08-07T04:38:52.302Z,10.53
2022-08-07T04:41:19.418Z,10.62
2022-08-07T04:44:14.518Z,10.72
2022-08-07T04:46:59.524Z,10.84
2022-08-07T04:49:42.700Z,10.94
2022-08-07T04:52:36.807Z,11.02
2022-08-07T04:58:14.418Z,11.13
2022-08-07T05:01:52.033Z,11.35
2022-08-07T05:04:37.689Z,11.44
2022-08-07T05:07:20.012Z,11.60
2022-08-07T23:14:16.728Z,13.34
2022-08-07T23:17:31.907Z,13.29
2022-08-07T23:20:26.179Z,13.24
2022-08-07T23:24:06.252Z,13.21
2022-08-07T23:27:07.750Z,13.17
2022-08-07T23:30:37.609Z,13.17
2022-08-07T23:34:33.774Z,13.14
2022-08-07T23:36:03.800Z,13.10
2022-08-07T23:38:58.707Z,13.07
2022-08-07T23:41:47.526Z,13.01
2022-08-07T23:44:43.196Z,13.00
2022-08-07T23:47:22.818Z,12.98
2022-08-07T23:50:27.162Z,12.93
2022-08-07T23:53:49.540Z,12.92
2022-08-07T23:56:26.985Z,12.88
